sensor_id;sensor_type;location;lat;lon;timestamp;P1;durP1;ratioP1;P2;durP2;ratioP2
54613;SDS011;40514;52.758;6.360;2023-04-12T09:52:06;11.50;;;7.13;;
54613;SDS011;40514;52.758;6.360;2023-04-12T09:57:06;12.10;;;6.13;;
54613;SDS011;40514;52.758;6.360;2023-04-12T09:59:34;12.02;;;7.10;;
54613;SDS011;40514;52.758;6.360;2023-04-12T10:02:21;10.73;;;6.97;;
54613;SDS011;40514;52.758;6.360;2023-04-12T10:04:51;11.90;;;4.70;;
54613;SDS011;40514;52.758;6.360;2023-04-12T10:07:17;8.23;;;4.95;;
54613;SDS011;40514;52.758;6.360;2023-04-12T10:09:44;9.95;;;5.95;;
54613;SDS011;40514;52.758;6.360;2023-04-12T10:12:10;9.90;;;4.50;;
54613;SDS011;40514;52.758;6.360;2023-04-12T10:14:35;10.00;;;4.60;;
54613;SDS011;40514;52.758;6.360;2023-04-12T10:17:02;7.53;;;4.20;;
54613;SDS011;40514;52.758;6.360;2023-04-12T10:19:30;7.47;;;4.43;;
54613;SDS011;40514;52.758;6.360;2023-04-12T10:21:57;10.68;;;4.35;;
54613;SDS011;40514;52.758;6.360;2023-04-12T10:24:24;8.05;;;4.13;;
54613;SDS011;40514;52.758;6.360;2023-04-12T10:26:51;11.32;;;3.88;;
54613;SDS011;40514;52.758;6.360;2023-04-12T10:31:56;8.95;;;4.03;;
54613;SDS011;40514;52.758;6.360;2023-04-12T10:34:26;10.52;;;3.50;;
54613;SDS011;40514;52.758;6.360;2023-04-12T10:37:00;10.27;;;2.88;;
54613;SDS011;40514;52.758;6.360;2023-04-12T10:42:13;10.25;;;3.75;;
54613;SDS011;40514;52.758;6.360;2023-04-12T10:44:43;9.73;;;3.50;;
54613;SDS011;40514;52.758;6.360;2023-04-12T10:47:10;12.38;;;4.00;;
54613;SDS011;40514;52.758;6.360;2023-04-12T10:49:35;10.30;;;3.43;;
54613;SDS011;40514;52.758;6.360;2023-04-12T10:54:34;8.90;;;3.17;;
54613;SDS011;40514;52.758;6.360;2023-04-12T10:57:01;13.18;;;3.25;;
54613;SDS011;40514;52.758;6.360;2023-04-12T11:02:16;8.20;;;2.67;;
54613;SDS011;40514;52.758;6.360;2023-04-12T11:07:38;10.88;;;3.40;;
54613;SDS011;40514;52.758;6.360;2023-04-12T11:10:15;10.80;;;3.03;;
54613;SDS011;40514;52.758;6.360;2023-04-12T11:12:51;10.85;;;3.30;;
54613;SDS011;40514;52.758;6.360;2023-04-12T11:15:23;10.77;;;3.25;;
54613;SDS011;40514;52.758;6.360;2023-04-12T11:17:55;10.98;;;2.97;;
54613;SDS011;40514;52.758;6.360;2023-04-12T11:25:15;11.00;;;3.10;;
54613;SDS011;40514;52.758;6.360;2023-04-12T11:27:47;9.13;;;2.95;;
54613;SDS011;40514;52.758;6.360;2023-04-12T11:30:17;7.95;;;2.45;;
54613;SDS011;40514;52.758;6.360;2023-04-12T11:32:44;9.77;;;3.03;;
54613;SDS011;40514;52.758;6.360;2023-04-12T11:35:11;10.15;;;2.83;;
54613;SDS011;40514;52.758;6.360;2023-04-12T11:37:39;13.77;;;3.03;;
54613;SDS011;40514;52.758;6.360;2023-04-12T11:40:04;11.97;;;2.90;;
54613;SDS011;40514;52.758;6.360;2023-04-12T11:42:31;10.57;;;2.80;;
54613;SDS011;40514;52.758;6.360;2023-04-12T11:44:57;10.32;;;2.40;;
54613;SDS011;40514;52.758;6.360;2023-04-12T11:49:53;11.60;;;2.90;;
54613;SDS011;40514;52.758;6.360;2023-04-12T11:52:20;14.20;;;2.42;;
54613;SDS011;40514;52.758;6.360;2023-04-12T11:54:51;10.27;;;2.17;;
54613;SDS011;40514;52.758;6.360;2023-04-12T11:57:20;9.82;;;2.53;;
54613;SDS011;40514;52.758;6.360;2023-04-12T11:59:46;9.55;;;2.38;;
54613;SDS011;40514;52.758;6.360;2023-04-12T12:02:13;14.13;;;3.05;;
54613;SDS011;40514;52.758;6.360;2023-04-12T12:04:41;10.45;;;2.60;;
54613;SDS011;40514;52.758;6.360;2023-04-12T12:07:13;9.77;;;2.50;;
54613;SDS011;40514;52.758;6.360;2023-04-12T12:09:40;7.72;;;2.20;;
54613;SDS011;40514;52.758;6.360;2023-04-12T12:14:35;15.63;;;2.83;;
54613;SDS011;40514;52.758;6.360;2023-04-12T12:17:01;12.60;;;2.43;;
54613;SDS011;40514;52.758;6.360;2023-04-12T12:19:35;9.93;;;2.60;;
54613;SDS011;40514;52.758;6.360;2023-04-12T12:24:34;7.55;;;2.55;;
54613;SDS011;40514;52.758;6.360;2023-04-12T12:27:02;10.48;;;2.50;;
54613;SDS011;40514;52.758;6.360;2023-04-12T12:29:37;10.60;;;2.78;;
54613;SDS011;40514;52.758;6.360;2023-04-12T12:32:12;10.32;;;2.22;;
54613;SDS011;40514;52.758;6.360;2023-04-12T12:34:38;8.80;;;2.50;;
54613;SDS011;40514;52.758;6.360;2023-04-12T12:37:14;8.48;;;2.30;;
54613;SDS011;40514;52.758;6.360;2023-04-12T12:39:58;10.15;;;2.33;;
54613;SDS011;40514;52.758;6.360;2023-04-12T12:45:15;12.38;;;3.00;;
54613;SDS011;40514;52.758;6.360;2023-04-12T12:47:49;8.20;;;2.42;;
54613;SDS011;40514;52.758;6.360;2023-04-12T12:50:26;12.38;;;2.90;;
54613;SDS011;40514;52.758;6.360;2023-04-12T12:53:00;9.50;;;2.28;;
54613;SDS011;40514;52.758;6.360;2023-04-12T12:55:26;13.20;;;2.75;;
54613;SDS011;40514;52.758;6.360;2023-04-12T12:57:53;11.18;;;2.83;;
54613;SDS011;40514;52.758;6.360;2023-04-12T13:00:24;10.68;;;2.72;;
54613;SDS011;40514;52.758;6.360;2023-04-12T13:02:51;10.25;;;2.50;;
54613;SDS011;40514;52.758;6.360;2023-04-12T13:05:18;11.70;;;2.85;;
54613;SDS011;40514;52.758;6.360;2023-04-12T13:07:44;9.50;;;2.55;;
54613;SDS011;40514;52.758;6.360;2023-04-12T13:10:11;10.75;;;2.70;;
54613;SDS011;40514;52.758;6.360;2023-04-12T13:12:36;9.57;;;2.37;;
54613;SDS011;40514;52.758;6.360;2023-04-12T13:15:02;9.53;;;2.63;;
54613;SDS011;40514;52.758;6.360;2023-04-12T13:17:28;7.13;;;2.35;;
54613;SDS011;40514;52.758;6.360;2023-04-12T13:19:55;11.02;;;3.25;;
54613;SDS011;40514;52.758;6.360;2023-04-12T13:22:21;11.65;;;2.63;;
54613;SDS011;40514;52.758;6.360;2023-04-12T13:24:47;12.05;;;2.33;;
54613;SDS011;40514;52.758;6.360;2023-04-12T13:27:13;11.68;;;2.38;;
54613;SDS011;40514;52.758;6.360;2023-04-12T13:29:39;12.43;;;2.30;;
54613;SDS011;40514;52.758;6.360;2023-04-12T13:34:31;12.70;;;2.70;;
54613;SDS011;40514;52.758;6.360;2023-04-12T13:36:57;8.37;;;2.03;;
54613;SDS011;40514;52.758;6.360;2023-04-12T13:39:23;10.18;;;2.50;;
54613;SDS011;40514;52.758;6.360;2023-04-12T13:41:49;15.27;;;2.30;;
54613;SDS011;40514;52.758;6.360;2023-04-12T13:44:15;9.85;;;2.70;;
54613;SDS011;40514;52.758;6.360;2023-04-12T13:46:41;13.57;;;2.97;;
54613;SDS011;40514;52.758;6.360;2023-04-12T13:49:07;7.80;;;2.27;;
54613;SDS011;40514;52.758;6.360;2023-04-12T13:51:32;8.93;;;2.10;;
54613;SDS011;40514;52.758;6.360;2023-04-12T13:53:58;10.30;;;2.80;;
54613;SDS011;40514;52.758;6.360;2023-04-12T13:56:24;7.82;;;2.10;;
54613;SDS011;40514;52.758;6.360;2023-04-12T13:58:50;7.20;;;2.10;;
54613;SDS011;40514;52.758;6.360;2023-04-12T14:01:15;5.82;;;1.67;;
54613;SDS011;40514;52.758;6.360;2023-04-12T14:03:42;9.85;;;2.20;;
54613;SDS011;40514;52.758;6.360;2023-04-12T14:06:08;9.68;;;1.90;;
54613;SDS011;40514;52.758;6.360;2023-04-12T14:08:34;7.17;;;1.80;;
54613;SDS011;40514;52.758;6.360;2023-04-12T14:11:01;4.53;;;1.70;;
54613;SDS011;40514;52.758;6.360;2023-04-12T14:13:27;7.95;;;1.98;;
54613;SDS011;40514;52.758;6.360;2023-04-12T14:15:53;5.83;;;1.73;;
54613;SDS011;40514;52.758;6.360;2023-04-12T14:18:19;9.02;;;2.47;;
54613;SDS011;40514;52.758;6.360;2023-04-12T14:20:48;6.85;;;1.90;;
54613;SDS011;40514;52.758;6.360;2023-04-12T14:23:25;7.65;;;1.95;;
54613;SDS011;40514;52.758;6.360;2023-04-12T14:25:52;7.93;;;1.90;;
54613;SDS011;40514;52.758;6.360;2023-04-12T14:28:18;5.38;;;1.48;;
54613;SDS011;40514;52.758;6.360;2023-04-12T14:30:45;4.03;;;1.60;;
54613;SDS011;40514;52.758;6.360;2023-04-12T14:33:14;7.63;;;2.10;;
54613;SDS011;40514;52.758;6.360;2023-04-12T14:38:06;6.72;;;1.65;;
54613;SDS011;40514;52.758;6.360;2023-04-12T14:40:32;6.43;;;1.70;;
54613;SDS011;40514;52.758;6.360;2023-04-12T14:42:58;4.75;;;1.80;;
54613;SDS011;40514;52.758;6.360;2023-04-12T14:45:24;5.27;;;1.80;;
54613;SDS011;40514;52.758;6.360;2023-04-12T14:50:16;10.73;;;2.20;;
54613;SDS011;40514;52.758;6.360;2023-04-12T14:52:42;10.97;;;2.43;;
54613;SDS011;40514;52.758;6.360;2023-04-12T14:55:07;9.00;;;2.53;;
54613;SDS011;40514;52.758;6.360;2023-04-12T14:57:34;8.77;;;2.28;;
54613;SDS011;40514;52.758;6.360;2023-04-12T15:00:00;11.15;;;2.63;;
54613;SDS011;40514;52.758;6.360;2023-04-12T15:02:26;9.97;;;2.03;;
54613;SDS011;40514;52.758;6.360;2023-04-12T15:04:52;7.00;;;1.93;;
54613;SDS011;40514;52.758;6.360;2023-04-12T15:07:17;8.47;;;2.33;;
54613;SDS011;40514;52.758;6.360;2023-04-12T15:09:43;11.33;;;2.73;;
54613;SDS011;40514;52.758;6.360;2023-04-12T15:12:09;8.90;;;2.10;;
54613;SDS011;40514;52.758;6.360;2023-04-12T15:14:34;10.63;;;2.33;;
54613;SDS011;40514;52.758;6.360;2023-04-12T15:17:00;7.80;;;2.20;;
54613;SDS011;40514;52.758;6.360;2023-04-12T15:19:27;7.60;;;2.08;;
54613;SDS011;40514;52.758;6.360;2023-04-12T15:21:53;9.23;;;2.50;;
54613;SDS011;40514;52.758;6.360;2023-04-12T15:24:23;7.75;;;1.92;;
54613;SDS011;40514;52.758;6.360;2023-04-12T15:26:49;7.38;;;2.65;;
54613;SDS011;40514;52.758;6.360;2023-04-12T15:29:16;8.68;;;2.63;;
54613;SDS011;40514;52.758;6.360;2023-04-12T15:31:43;7.78;;;2.55;;
54613;SDS011;40514;52.758;6.360;2023-04-12T15:34:09;8.77;;;2.20;;
54613;SDS011;40514;52.758;6.360;2023-04-12T15:36:38;11.30;;;2.28;;
54613;SDS011;40514;52.758;6.360;2023-04-12T15:39:09;9.50;;;2.20;;
54613;SDS011;40514;52.758;6.360;2023-04-12T15:41:37;8.65;;;2.72;;
54613;SDS011;40514;52.758;6.360;2023-04-12T15:44:03;9.38;;;2.40;;
54613;SDS011;40514;52.758;6.360;2023-04-12T15:46:30;8.93;;;1.70;;
54613;SDS011;40514;52.758;6.360;2023-04-12T15:48:56;8.80;;;2.10;;
54613;SDS011;40514;52.758;6.360;2023-04-12T15:51:22;8.52;;;2.17;;
54613;SDS011;40514;52.758;6.360;2023-04-12T15:53:48;8.87;;;2.20;;
54613;SDS011;40514;52.758;6.360;2023-04-12T15:56:14;7.40;;;2.15;;
54613;SDS011;40514;52.758;6.360;2023-04-12T15:58:44;8.40;;;2.08;;
54613;SDS011;40514;52.758;6.360;2023-04-12T16:01:10;7.55;;;1.92;;
54613;SDS011;40514;52.758;6.360;2023-04-12T16:03:36;11.85;;;2.72;;
54613;SDS011;40514;52.758;6.360;2023-04-12T16:06:01;7.43;;;2.33;;
54613;SDS011;40514;52.758;6.360;2023-04-12T16:08:27;10.02;;;2.25;;
54613;SDS011;40514;52.758;6.360;2023-04-12T16:10:53;8.47;;;2.43;;
54613;SDS011;40514;52.758;6.360;2023-04-12T16:13:18;8.17;;;2.10;;
54613;SDS011;40514;52.758;6.360;2023-04-12T16:15:45;8.45;;;2.13;;
54613;SDS011;40514;52.758;6.360;2023-04-12T16:18:11;8.23;;;2.17;;
54613;SDS011;40514;52.758;6.360;2023-04-12T16:20:36;11.10;;;2.50;;
54613;SDS011;40514;52.758;6.360;2023-04-12T16:23:03;11.88;;;2.47;;
54613;SDS011;40514;52.758;6.360;2023-04-12T16:25:29;9.43;;;2.80;;
54613;SDS011;40514;52.758;6.360;2023-04-12T16:27:54;9.70;;;2.70;;
54613;SDS011;40514;52.758;6.360;2023-04-12T16:30:21;10.38;;;2.45;;
54613;SDS011;40514;52.758;6.360;2023-04-12T16:32:47;7.73;;;2.40;;
54613;SDS011;40514;52.758;6.360;2023-04-12T16:35:16;7.80;;;2.00;;
54613;SDS011;40514;52.758;6.360;2023-04-12T16:37:42;7.03;;;2.25;;
54613;SDS011;40514;52.758;6.360;2023-04-12T16:40:08;9.60;;;2.30;;
54613;SDS011;40514;52.758;6.360;2023-04-12T16:42:40;11.10;;;2.40;;
54613;SDS011;40514;52.758;6.360;2023-04-12T16:45:07;9.85;;;2.67;;
54613;SDS011;40514;52.758;6.360;2023-04-12T16:47:34;12.95;;;2.70;;
54613;SDS011;40514;52.758;6.360;2023-04-12T16:50:01;10.23;;;2.30;;
54613;SDS011;40514;52.758;6.360;2023-04-12T16:52:28;7.35;;;2.13;;
54613;SDS011;40514;52.758;6.360;2023-04-12T16:54:55;7.57;;;2.25;;
54613;SDS011;40514;52.758;6.360;2023-04-12T16:57:21;7.25;;;2.05;;
54613;SDS011;40514;52.758;6.360;2023-04-12T16:59:47;7.20;;;2.25;;
54613;SDS011;40514;52.758;6.360;2023-04-12T17:04:41;7.70;;;1.60;;
54613;SDS011;40514;52.758;6.360;2023-04-12T17:07:07;5.30;;;1.40;;
54613;SDS011;40514;52.758;6.360;2023-04-12T17:09:34;4.28;;;1.25;;
54613;SDS011;40514;52.758;6.360;2023-04-12T17:11:59;4.67;;;1.30;;
54613;SDS011;40514;52.758;6.360;2023-04-12T17:14:26;4.10;;;1.13;;
54613;SDS011;40514;52.758;6.360;2023-04-12T17:16:52;4.55;;;1.35;;
54613;SDS011;40514;52.758;6.360;2023-04-12T17:19:18;3.47;;;1.10;;
54613;SDS011;40514;52.758;6.360;2023-04-12T17:21:44;4.75;;;1.30;;
54613;SDS011;40514;52.758;6.360;2023-04-12T17:24:10;5.28;;;1.52;;
54613;SDS011;40514;52.758;6.360;2023-04-12T17:26:36;4.72;;;1.40;;
54613;SDS011;40514;52.758;6.360;2023-04-12T17:29:02;2.75;;;1.17;;
54613;SDS011;40514;52.758;6.360;2023-04-12T17:31:31;4.93;;;1.40;;
54613;SDS011;40514;52.758;6.360;2023-04-12T17:33:58;4.70;;;1.20;;
54613;SDS011;40514;52.758;6.360;2023-04-12T17:36:25;3.58;;;1.27;;
54613;SDS011;40514;52.758;6.360;2023-04-12T17:38:56;3.70;;;1.08;;
54613;SDS011;40514;52.758;6.360;2023-04-12T17:41:25;3.17;;;1.30;;
54613;SDS011;40514;52.758;6.360;2023-04-12T17:43:51;4.00;;;1.42;;
54613;SDS011;40514;52.758;6.360;2023-04-12T17:46:17;3.90;;;1.45;;
54613;SDS011;40514;52.758;6.360;2023-04-12T17:48:42;4.67;;;1.80;;
54613;SDS011;40514;52.758;6.360;2023-04-12T17:51:08;4.57;;;1.60;;
54613;SDS011;40514;52.758;6.360;2023-04-12T17:53:34;4.77;;;1.40;;
54613;SDS011;40514;52.758;6.360;2023-04-12T17:56:00;4.67;;;1.60;;
54613;SDS011;40514;52.758;6.360;2023-04-12T17:58:26;2.92;;;1.20;;
54613;SDS011;40514;52.758;6.360;2023-04-12T18:00:51;4.17;;;1.37;;
54613;SDS011;40514;52.758;6.360;2023-04-12T18:03:17;4.47;;;1.50;;
54613;SDS011;40514;52.758;6.360;2023-04-12T18:05:43;5.30;;;1.43;;
54613;SDS011;40514;52.758;6.360;2023-04-12T18:08:10;3.70;;;1.48;;
54613;SDS011;40514;52.758;6.360;2023-04-12T18:10:35;4.70;;;1.53;;
54613;SDS011;40514;52.758;6.360;2023-04-12T18:13:01;4.67;;;1.43;;
54613;SDS011;40514;52.758;6.360;2023-04-12T18:15:27;7.20;;;1.50;;
54613;SDS011;40514;52.758;6.360;2023-04-12T18:17:52;3.07;;;1.20;;
54613;SDS011;40514;52.758;6.360;2023-04-12T18:20:18;3.50;;;1.40;;
54613;SDS011;40514;52.758;6.360;2023-04-12T18:22:44;6.63;;;1.40;;
54613;SDS011;40514;52.758;6.360;2023-04-12T18:25:10;3.60;;;1.33;;
54613;SDS011;40514;52.758;6.360;2023-04-12T18:27:36;5.63;;;1.30;;
54613;SDS011;40514;52.758;6.360;2023-04-12T18:30:02;7.13;;;1.50;;
54613;SDS011;40514;52.758;6.360;2023-04-12T18:32:31;5.13;;;1.20;;
54613;SDS011;40514;52.758;6.360;2023-04-12T18:34:57;3.20;;;1.20;;
54613;SDS011;40514;52.758;6.360;2023-04-12T18:37:22;5.80;;;1.30;;
54613;SDS011;40514;52.758;6.360;2023-04-12T18:39:48;5.50;;;1.77;;
54613;SDS011;40514;52.758;6.360;2023-04-12T18:42:14;5.63;;;1.40;;
54613;SDS011;40514;52.758;6.360;2023-04-12T18:44:39;3.57;;;1.20;;
54613;SDS011;40514;52.758;6.360;2023-04-12T18:47:06;3.65;;;1.42;;
54613;SDS011;40514;52.758;6.360;2023-04-12T18:49:31;5.07;;;1.40;;
54613;SDS011;40514;52.758;6.360;2023-04-12T18:51:57;4.83;;;1.60;;
54613;SDS011;40514;52.758;6.360;2023-04-12T18:54:26;3.00;;;1.47;;
54613;SDS011;40514;52.758;6.360;2023-04-12T18:56:53;4.18;;;1.67;;
54613;SDS011;40514;52.758;6.360;2023-04-12T18:59:18;5.40;;;1.60;;
54613;SDS011;40514;52.758;6.360;2023-04-12T19:01:44;4.67;;;1.60;;
54613;SDS011;40514;52.758;6.360;2023-04-12T19:04:10;5.67;;;1.50;;
54613;SDS011;40514;52.758;6.360;2023-04-12T19:06:36;5.20;;;1.63;;
54613;SDS011;40514;52.758;6.360;2023-04-12T19:09:02;4.50;;;1.65;;
54613;SDS011;40514;52.758;6.360;2023-04-12T19:11:29;3.88;;;1.90;;
54613;SDS011;40514;52.758;6.360;2023-04-12T19:13:54;3.53;;;1.70;;
54613;SDS011;40514;52.758;6.360;2023-04-12T19:16:20;4.23;;;1.97;;
54613;SDS011;40514;52.758;6.360;2023-04-12T19:18:46;5.43;;;1.83;;
54613;SDS011;40514;52.758;6.360;2023-04-12T19:21:13;4.72;;;1.85;;
54613;SDS011;40514;52.758;6.360;2023-04-12T19:23:38;3.10;;;1.70;;
54613;SDS011;40514;52.758;6.360;2023-04-12T19:26:04;3.73;;;1.70;;
54613;SDS011;40514;52.758;6.360;2023-04-12T19:28:30;2.78;;;1.50;;
54613;SDS011;40514;52.758;6.360;2023-04-12T19:30:56;5.40;;;1.80;;
54613;SDS011;40514;52.758;6.360;2023-04-12T19:33:21;3.72;;;1.50;;
54613;SDS011;40514;52.758;6.360;2023-04-12T19:35:48;6.05;;;1.60;;
54613;SDS011;40514;52.758;6.360;2023-04-12T19:38:18;3.58;;;1.40;;
54613;SDS011;40514;52.758;6.360;2023-04-12T19:40:45;2.83;;;1.40;;
54613;SDS011;40514;52.758;6.360;2023-04-12T19:43:10;4.93;;;1.70;;
54613;SDS011;40514;52.758;6.360;2023-04-12T19:45:40;4.75;;;1.58;;
54613;SDS011;40514;52.758;6.360;2023-04-12T19:48:06;2.90;;;1.40;;
54613;SDS011;40514;52.758;6.360;2023-04-12T19:50:31;4.73;;;1.93;;
54613;SDS011;40514;52.758;6.360;2023-04-12T19:53:00;3.50;;;1.38;;
54613;SDS011;40514;52.758;6.360;2023-04-12T19:55:25;3.27;;;1.50;;
54613;SDS011;40514;52.758;6.360;2023-04-12T19:57:51;3.73;;;1.60;;
54613;SDS011;40514;52.758;6.360;2023-04-12T20:00:17;3.43;;;1.60;;
54613;SDS011;40514;52.758;6.360;2023-04-12T20:02:48;3.75;;;1.30;;
54613;SDS011;40514;52.758;6.360;2023-04-12T20:05:14;3.70;;;1.50;;
54613;SDS011;40514;52.758;6.360;2023-04-12T20:07:43;3.10;;;1.63;;
54613;SDS011;40514;52.758;6.360;2023-04-12T20:10:09;3.53;;;1.70;;
54613;SDS011;40514;52.758;6.360;2023-04-12T20:12:36;3.33;;;1.80;;
54613;SDS011;40514;52.758;6.360;2023-04-12T20:15:02;4.60;;;1.50;;
54613;SDS011;40514;52.758;6.360;2023-04-12T20:19:55;3.60;;;1.33;;
54613;SDS011;40514;52.758;6.360;2023-04-12T20:22:21;2.63;;;1.40;;
54613;SDS011;40514;52.758;6.360;2023-04-12T20:24:47;3.27;;;1.60;;
54613;SDS011;40514;52.758;6.360;2023-04-12T20:27:14;3.30;;;1.67;;
54613;SDS011;40514;52.758;6.360;2023-04-12T20:29:45;4.28;;;1.77;;
54613;SDS011;40514;52.758;6.360;2023-04-12T20:32:11;4.00;;;1.70;;
54613;SDS011;40514;52.758;6.360;2023-04-12T20:37:10;5.22;;;1.58;;
54613;SDS011;40514;52.758;6.360;2023-04-12T20:39:36;4.25;;;1.77;;
54613;SDS011;40514;52.758;6.360;2023-04-12T20:42:02;3.97;;;1.90;;
54613;SDS011;40514;52.758;6.360;2023-04-12T20:44:27;4.63;;;1.93;;
54613;SDS011;40514;52.758;6.360;2023-04-12T20:46:53;4.27;;;1.70;;
54613;SDS011;40514;52.758;6.360;2023-04-12T20:49:19;5.37;;;1.90;;
54613;SDS011;40514;52.758;6.360;2023-04-12T20:51:45;3.60;;;1.90;;
54613;SDS011;40514;52.758;6.360;2023-04-12T20:54:12;5.03;;;1.92;;
54613;SDS011;40514;52.758;6.360;2023-04-12T20:56:37;4.55;;;2.00;;
54613;SDS011;40514;52.758;6.360;2023-04-12T20:59:03;5.77;;;2.30;;
54613;SDS011;40514;52.758;6.360;2023-04-12T21:01:28;4.97;;;2.10;;
54613;SDS011;40514;52.758;6.360;2023-04-12T21:03:55;6.07;;;1.90;;
54613;SDS011;40514;52.758;6.360;2023-04-12T21:06:22;4.85;;;1.90;;
54613;SDS011;40514;52.758;6.360;2023-04-12T21:08:48;6.13;;;2.60;;
